Euless, TX (76040)

1:02 PM CDT on August 29, 2016 (GMT -0500)
Oakwood Terrace North | | Change Station

Elev 582 ft 32.83 °N, 97.12 °W | Updated 11 seconds ago

Mostly Cloudy
Mostly Cloudy
91.2 °F
Feels Like 97 °F
N
2.7
Wind Variable Wind from ENE
Gusts 8.1 mph

Today
High -- | Low -- °F
--% Chance of Precip.
Yesterday
High -- | Low -- °F
Precip. -- in
Pressure 30.04 in
Visibility 10.0 miles
Clouds Mostly Cloudy 3900 ft
Mostly Cloudy 6000 ft
Mostly Cloudy 15000 ft
Heat Index 97 °F
Dew Point 71 °F
Humidity 51%
Rainfall 0.00 in
Snow Depth Not available.
7:01 AM 7:56 PM
Waning Crescent, 7% visible
METAR KDFW 291753Z 04006KT 10SM BKN039TCU BKN060 BKN150 32/22 A3006 RMK AO2 SLP170 TCU ALQDS T03220217 10328 20233 58009
Pressure 30.04 in
Visibility 10.0 miles
Clouds Mostly Cloudy 3900 ft
Mostly Cloudy 6000 ft
Mostly Cloudy 15000 ft
Heat Index 97 °F
Dew Point 71 °F
Humidity 51%
Rainfall 0.00 in
Snow Depth Not available.
7:01 AM 7:56 PM
Waning Crescent, 7% visible
METAR KDFW 291753Z 04006KT 10SM BKN039TCU BKN060 BKN150 32/22 A3006 RMK AO2 SLP170 TCU ALQDS T03220217 10328 20233 58009

10-Day Weather Forecast

Almanac

Astronomy

Aug. 29, 2016 Rise Set
Actual Time
Civil Twilight
Nautical Twilight
Astronomical Twilight
Moon
Length of Visible Light
Length of Day
Tomorrow will be .
, % of the Moon is Illuminated

Today's Extremes

State Highs State Lows

Community

WunderPhotos

Upload Photos

1,935,685 photos uploaded!

WunderBlog® & News

Nearby

Air Quality

  Air Quality AQ Index Pollutant
Not available.

Snow Depth

Station Depth Elevation

Earthquake Activity

City Distance Mag. Time & Date
Minimum magnitude displayed is 2.5.

Coastal Water Temperatures

Place Temperature

Stations

Nearby Weather Stations

Station Location Temp. Windchill Dew Point Humidity Wind Precip. Elev Updated Type
                   

Watches & Warnings

There are currently no watches in effect.